Time,TemperatureF,DewpointF,PressureIn,WindDirection,WindDirectionDegrees,WindSpeedMPH,WindSpeedGustMPH,Humidity,HourlyPrecipIn,Conditions,Clouds,dailyrainin,SoftwareType,DateUTC
2013-02-23 00:06:00,36.0,27.0,30.25,SSE,157,8.0,8.0,73,0.00,,,0.00,TxWx,2013-02-23 05:06:00,
2013-02-23 00:11:00,36.0,27.0,30.25,SE,135,5.0,10.0,73,0.00,,,0.00,TxWx,2013-02-23 05:11:00,
2013-02-23 00:16:00,36.0,27.0,30.25,SSE,157,8.0,8.0,73,0.00,,,0.00,TxWx,2013-02-23 05:16:00,
2013-02-23 00:21:00,36.0,27.0,30.25,SSE,157,7.0,10.0,73,0.00,,,0.00,TxWx,2013-02-23 05:21:00,
2013-02-23 00:27:00,36.0,27.0,30.25,SSE,157,8.0,8.0,73,0.00,,,0.00,TxWx,2013-02-23 05:27:00,
2013-02-23 00:32:00,36.0,27.0,30.25,ESE,112,6.0,6.0,74,0.00,,,0.00,TxWx,2013-02-23 05:32:00,
2013-02-23 00:37:00,35.0,26.0,30.25,South,180,8.0,10.0,74,0.00,,,0.00,TxWx,2013-02-23 05:37:00,
2013-02-23 00:42:00,35.0,27.0,30.25,South,180,3.0,4.0,74,0.00,,,0.00,TxWx,2013-02-23 05:42:00,
2013-02-23 00:47:00,35.0,27.0,30.24,SE,135,8.0,8.0,74,0.00,,,0.00,TxWx,2013-02-23 05:47:00,
2013-02-23 00:52:00,35.0,27.0,30.24,SSE,157,2.0,3.0,74,0.00,,,0.00,TxWx,2013-02-23 05:52:00,
2013-02-23 00:57:00,35.0,27.0,30.24,SSE,157,3.0,6.0,75,0.00,,,0.00,TxWx,2013-02-23 05:57:00,
2013-02-23 01:02:00,35.0,27.0,30.24,South,180,7.0,7.0,75,0.00,,,0.00,TxWx,2013-02-23 06:02:00,
2013-02-23 01:04:00,36.0,33.0,30.08,SE,135,6.0,6.0,89,0.00,,,0.00,TxWx,2013-02-23 06:04:00,
2013-02-23 01:05:00,36.0,33.0,30.08,SSE,157,8.0,8.0,89,0.00,,,0.00,TxWx,2013-02-23 06:05:00,
2013-02-23 01:06:00,36.0,33.0,30.08,SSE,157,5.0,8.0,89,0.00,,,0.00,TxWx,2013-02-23 06:06:00,
2013-02-23 01:07:00,35.0,27.0,30.24,SSW,202,6.0,6.0,75,0.00,,,0.00,TxWx,2013-02-23 06:07:00,
2013-02-23 01:08:00,36.0,33.0,30.08,SSE,157,3.0,5.0,90,0.00,,,0.00,TxWx,2013-02-23 06:08:00,
2013-02-23 01:09:00,36.0,33.0,30.08,South,180,6.0,8.0,90,0.00,,,0.00,TxWx,2013-02-23 06:09:00,
2013-02-23 01:12:00,35.0,27.0,30.24,SSE,157,5.0,5.0,75,0.00,,,0.00,TxWx,2013-02-23 06:12:00,
2013-02-23 01:18:00,35.0,27.0,30.24,SSE,157,6.0,8.0,75,0.00,,,0.00,TxWx,2013-02-23 06:18:00,
2013-02-23 01:23:00,35.0,27.0,30.24,SSE,157,6.0,8.0,75,0.00,,,0.00,TxWx,2013-02-23 06:23:00,
2013-02-23 01:28:00,35.0,27.0,30.24,SSE,157,5.0,5.0,75,0.00,,,0.00,TxWx,2013-02-23 06:28:00,
2013-02-23 01:33:00,35.0,27.0,30.23,SE,135,3.0,5.0,75,0.00,,,0.00,TxWx,2013-02-23 06:33:00,
2013-02-23 01:38:00,35.0,27.0,30.23,ESE,112,3.0,5.0,75,0.00,,,0.00,TxWx,2013-02-23 06:38:00,
2013-02-23 01:43:00,35.0,27.0,30.24,SSE,157,8.0,8.0,75,0.00,,,0.00,TxWx,2013-02-23 06:43:00,
2013-02-23 01:48:00,35.0,27.0,30.24,SSE,157,6.0,6.0,75,0.00,,,0.00,TxWx,2013-02-23 06:48:00,
2013-02-23 01:53:00,35.0,27.0,30.24,SSE,157,7.0,7.0,76,0.00,,,0.00,TxWx,2013-02-23 06:53:00,
2013-02-23 01:58:00,35.0,27.0,30.24,South,180,5.0,5.0,76,0.00,,,0.00,TxWx,2013-02-23 06:58:00,
2013-02-23 02:03:00,35.0,27.0,30.23,SSE,157,6.0,7.0,76,0.00,,,0.00,TxWx,2013-02-23 07:03:00,
2013-02-23 02:09:00,35.0,27.0,30.23,SE,135,4.0,4.0,76,0.00,,,0.00,TxWx,2013-02-23 07:09:00,
2013-02-23 02:14:00,35.0,27.0,30.23,South,180,6.0,10.0,76,0.00,,,0.00,TxWx,2013-02-23 07:14:00,
2013-02-23 02:19:00,35.0,27.0,30.23,SSE,157,6.0,12.0,76,0.00,,,0.00,TxWx,2013-02-23 07:19:00,
2013-02-23 02:24:00,35.0,27.0,30.23,ESE,112,8.0,10.0,76,0.00,,,0.00,TxWx,2013-02-23 07:24:00,
2013-02-23 02:29:00,35.0,27.0,30.23,SE,135,3.0,6.0,76,0.00,,,0.00,TxWx,2013-02-23 07:29:00,
2013-02-23 02:34:00,35.0,27.0,30.22,SE,135,6.0,7.0,77,0.00,,,0.00,TxWx,2013-02-23 07:34:00,
2013-02-23 02:39:00,35.0,27.0,30.22,East,90,4.0,6.0,77,0.00,,,0.00,TxWx,2013-02-23 07:39:00,
2013-02-23 02:44:00,35.0,28.0,30.22,South,180,4.0,7.0,77,0.00,,,0.00,TxWx,2013-02-23 07:44:00,
2013-02-23 02:49:00,35.0,28.0,30.22,SSE,157,5.0,7.0,78,0.00,,,0.00,TxWx,2013-02-23 07:49:00,
2013-02-23 02:54:00,35.0,28.0,30.22,ESE,112,6.0,6.0,78,0.00,,,0.00,TxWx,2013-02-23 07:54:00,
2013-02-23 02:59:00,35.0,28.0,30.21,SSE,157,8.0,10.0,78,0.00,,,0.00,TxWx,2013-02-23 07:59:00,
2013-02-23 03:05:00,35.0,28.0,30.20,SE,135,4.0,5.0,79,0.00,,,0.00,TxWx,2013-02-23 08:05:00,
2013-02-23 03:10:00,35.0,28.0,30.20,SSE,157,8.0,8.0,79,0.00,,,0.00,TxWx,2013-02-23 08:10:00,
2013-02-23 03:15:00,35.0,28.0,30.20,ESE,112,1.0,3.0,79,0.00,,,0.00,TxWx,2013-02-23 08:15:00,
2013-02-23 03:20:00,35.0,28.0,30.20,SSE,157,4.0,7.0,79,0.00,,,0.00,TxWx,2013-02-23 08:20:00,
2013-02-23 03:25:00,35.0,28.0,30.19,ESE,112,4.0,5.0,79,0.00,,,0.00,TxWx,2013-02-23 08:25:00,
2013-02-23 03:30:00,35.0,28.0,30.19,SE,135,4.0,5.0,79,0.00,,,0.00,TxWx,2013-02-23 08:30:00,
2013-02-23 03:35:00,35.0,28.0,30.19,ESE,112,5.0,5.0,80,0.00,,,0.00,TxWx,2013-02-23 08:35:00,
2013-02-23 03:40:00,35.0,28.0,30.19,SE,135,3.0,3.0,80,0.00,,,0.00,TxWx,2013-02-23 08:40:00,
2013-02-23 03:45:00,35.0,28.0,30.19,ESE,112,6.0,10.0,80,0.00,,,0.00,TxWx,2013-02-23 08:45:00,
2013-02-23 03:50:00,35.0,28.0,30.19,ESE,112,5.0,6.0,80,0.00,,,0.00,TxWx,2013-02-23 08:50:00,
2013-02-23 03:55:00,35.0,28.0,30.19,SSE,157,5.0,6.0,80,0.00,,,0.00,TxWx,2013-02-23 08:55:00,
2013-02-23 04:00:00,35.0,28.0,30.19,ESE,112,5.0,5.0,80,0.00,,,0.00,TxWx,2013-02-23 09:00:00,
2013-02-23 04:05:00,35.0,28.0,30.19,SW,225,5.0,5.0,80,0.00,,,0.00,TxWx,2013-02-23 09:05:00,
2013-02-23 04:10:00,35.0,28.0,30.19,ESE,112,6.0,8.0,80,0.00,,,0.00,TxWx,2013-02-23 09:10:00,
2013-02-23 04:16:00,35.0,28.0,30.18,ESE,112,3.0,5.0,80,0.00,,,0.00,TxWx,2013-02-23 09:16:00,
2013-02-23 04:21:00,35.0,28.0,30.18,SSE,157,5.0,5.0,80,0.00,,,0.00,TxWx,2013-02-23 09:21:00,
2013-02-23 04:26:00,35.0,28.0,30.18,SSE,157,6.0,6.0,80,0.00,,,0.00,TxWx,2013-02-23 09:26:00,
2013-02-23 04:31:00,35.0,29.0,30.18,ESE,112,9.0,9.0,81,0.00,,,0.00,TxWx,2013-02-23 09:31:00,
2013-02-23 04:36:00,35.0,29.0,30.18,SSE,157,4.0,4.0,81,0.00,,,0.00,TxWx,2013-02-23 09:36:00,
2013-02-23 04:41:00,35.0,29.0,30.19,South,180,7.0,8.0,81,0.00,,,0.00,TxWx,2013-02-23 09:41:00,
2013-02-23 04:46:00,34.0,28.0,30.19,South,180,7.0,8.0,81,0.00,,,0.00,TxWx,2013-02-23 09:46:00,
2013-02-23 04:51:00,34.0,28.0,30.19,South,180,6.0,6.0,82,0.00,,,0.00,TxWx,2013-02-23 09:51:00,
2013-02-23 04:56:00,34.0,28.0,30.19,South,180,6.0,10.0,83,0.00,,,0.00,TxWx,2013-02-23 09:56:00,
2013-02-23 05:01:00,34.0,29.0,30.19,South,180,8.0,8.0,84,0.00,,,0.00,TxWx,2013-02-23 10:01:00,
2013-02-23 05:06:00,34.0,29.0,30.18,SSE,157,7.0,7.0,84,0.00,,,0.00,TxWx,2013-02-23 10:06:00,
2013-02-23 05:11:00,34.0,29.0,30.18,SSE,157,5.0,6.0,85,0.00,,,0.00,TxWx,2013-02-23 10:11:00,
2013-02-23 05:16:00,34.0,29.0,30.18,South,180,5.0,5.0,85,0.00,,,0.00,TxWx,2013-02-23 10:16:00,
2013-02-23 05:21:00,34.0,29.0,30.18,SSE,157,5.0,6.0,86,0.00,,,0.00,TxWx,2013-02-23 10:21:00,
2013-02-23 05:27:00,34.0,29.0,30.18,ESE,112,3.0,3.0,86,0.00,,,0.00,TxWx,2013-02-23 10:27:00,
2013-02-23 05:32:00,34.0,29.0,30.18,SE,135,5.0,5.0,86,0.00,,,0.00,TxWx,2013-02-23 10:32:00,
2013-02-23 05:37:00,34.0,29.0,30.17,SSE,157,6.0,6.0,87,0.00,,,0.00,TxWx,2013-02-23 10:37:00,
2013-02-23 05:42:00,34.0,29.0,30.17,SSE,157,6.0,7.0,87,0.00,,,0.00,TxWx,2013-02-23 10:42:00,
2013-02-23 05:47:00,34.0,30.0,30.17,South,180,6.0,8.0,87,0.00,,,0.00,TxWx,2013-02-23 10:47:00,
2013-02-23 05:52:00,34.0,30.0,30.17,SSW,202,4.0,5.0,87,0.00,,,0.00,TxWx,2013-02-23 10:52:00,
2013-02-23 05:57:00,34.0,30.0,30.17,South,180,6.0,6.0,88,0.00,,,0.00,TxWx,2013-02-23 10:57:00,
2013-02-23 06:02:00,34.0,30.0,30.16,SSE,157,5.0,6.0,88,0.00,,,0.00,TxWx,2013-02-23 11:02:00,
2013-02-23 06:07:00,34.0,30.0,30.16,SE,135,5.0,6.0,88,0.00,,,0.00,TxWx,2013-02-23 11:07:00,
2013-02-23 06:12:00,34.0,30.0,30.15,ESE,112,4.0,5.0,88,0.00,,,0.00,TxWx,2013-02-23 11:12:00,
2013-02-23 06:17:00,34.0,30.0,30.15,ESE,112,4.0,7.0,88,0.00,,,0.00,TxWx,2013-02-23 11:17:00,
2013-02-23 06:22:00,34.0,30.0,30.15,SSE,157,6.0,8.0,88,0.00,,,0.00,TxWx,2013-02-23 11:22:00,
2013-02-23 06:27:00,34.0,30.0,30.15,SSE,157,4.0,5.0,88,0.00,,,0.00,TxWx,2013-02-23 11:27:00,
2013-02-23 06:32:00,34.0,30.0,30.15,South,180,5.0,8.0,88,0.00,,,0.00,TxWx,2013-02-23 11:32:00,
2013-02-23 06:37:00,34.0,30.0,30.15,SSE,157,6.0,7.0,88,0.00,,,0.00,TxWx,2013-02-23 11:37:00,
2013-02-23 06:43:00,34.0,30.0,30.15,SSE,157,5.0,6.0,88,0.00,,,0.00,TxWx,2013-02-23 11:43:00,
2013-02-23 06:48:00,34.0,30.0,30.15,SSE,157,5.0,5.0,88,0.00,,,0.00,TxWx,2013-02-23 11:48:00,
2013-02-23 06:53:00,34.0,30.0,30.15,South,180,7.0,8.0,88,0.00,,,0.00,TxWx,2013-02-23 11:53:00,
2013-02-23 06:58:00,34.0,30.0,30.15,SSW,202,6.0,6.0,88,0.00,,,0.00,TxWx,2013-02-23 11:58:00,
2013-02-23 07:03:00,34.0,30.0,30.15,SSE,157,5.0,6.0,88,0.00,,,0.00,TxWx,2013-02-23 12:03:00,
2013-02-23 07:08:00,34.0,30.0,30.15,SSE,157,5.0,6.0,88,0.00,,,0.00,TxWx,2013-02-23 12:08:00,
2013-02-23 07:13:00,34.0,30.0,30.15,South,180,5.0,5.0,88,0.00,,,0.00,TxWx,2013-02-23 12:13:00,
2013-02-23 07:18:00,34.0,30.0,30.15,SE,135,3.0,3.0,88,0.00,,,0.00,TxWx,2013-02-23 12:18:00,
2013-02-23 07:23:00,34.0,30.0,30.14,SSE,157,4.0,5.0,89,0.00,,,0.00,TxWx,2013-02-23 12:23:00,
2013-02-23 07:28:00,34.0,30.0,30.14,SE,135,3.0,5.0,88,0.00,,,0.00,TxWx,2013-02-23 12:28:00,
2013-02-23 07:33:00,34.0,30.0,30.14,South,180,5.0,5.0,88,0.00,,,0.00,TxWx,2013-02-23 12:33:00,
2013-02-23 07:38:00,35.0,31.0,30.15,South,180,5.0,6.0,88,0.00,,,0.00,TxWx,2013-02-23 12:38:00,
2013-02-23 07:43:00,35.0,31.0,30.15,South,180,3.0,5.0,88,0.00,,,0.00,TxWx,2013-02-23 12:43:00,
2013-02-23 07:48:00,35.0,31.0,30.14,SSE,157,3.0,3.0,88,0.00,,,0.00,TxWx,2013-02-23 12:48:00,
2013-02-23 07:54:00,35.0,31.0,30.14,ESE,112,2.0,2.0,88,0.00,,,0.00,TxWx,2013-02-23 12:54:00,
2013-02-23 07:59:00,35.0,31.0,30.14,South,180,5.0,5.0,88,0.00,,,0.00,TxWx,2013-02-23 12:59:00,
2013-02-23 08:04:00,35.0,31.0,30.14,South,180,5.0,5.0,88,0.00,,,0.00,TxWx,2013-02-23 13:04:00,
2013-02-23 08:09:00,35.0,31.0,30.14,SSE,157,5.0,6.0,87,0.00,,,0.00,TxWx,2013-02-23 13:09:00,
2013-02-23 08:15:00,35.0,31.0,30.14,SE,135,5.0,5.0,87,0.00,,,0.00,TxWx,2013-02-23 13:15:00,
2013-02-23 08:20:00,35.0,30.0,30.14,SSE,157,5.0,6.0,87,0.00,,,0.00,TxWx,2013-02-23 13:20:00,
2013-02-23 08:25:00,35.0,30.0,30.14,South,180,6.0,6.0,87,0.00,,,0.00,TxWx,2013-02-23 13:25:00,
2013-02-23 08:30:00,35.0,30.0,30.14,South,180,4.0,5.0,87,0.00,,,0.00,TxWx,2013-02-23 13:30:00,
2013-02-23 08:35:00,35.0,30.0,30.14,SSE,157,7.0,8.0,87,0.00,,,0.00,TxWx,2013-02-23 13:35:00,
2013-02-23 08:40:00,35.0,30.0,30.14,SSE,157,4.0,5.0,87,0.00,,,0.00,TxWx,2013-02-23 13:40:00,
2013-02-23 08:45:00,35.0,30.0,30.14,ESE,112,4.0,6.0,87,0.00,,,0.00,TxWx,2013-02-23 13:45:00,
2013-02-23 08:50:00,35.0,30.0,30.14,SSE,157,6.0,6.0,87,0.00,,,0.00,TxWx,2013-02-23 13:50:00,
2013-02-23 08:55:00,35.0,30.0,30.13,South,180,5.0,8.0,86,0.00,,,0.00,TxWx,2013-02-23 13:55:00,
2013-02-23 09:00:00,36.0,32.0,30.13,South,180,6.0,6.0,86,0.00,,,0.00,TxWx,2013-02-23 14:00:00,
2013-02-23 09:05:00,36.0,32.0,30.13,SSE,157,5.0,5.0,86,0.00,,,0.00,TxWx,2013-02-23 14:05:00,
2013-02-23 09:10:00,36.0,32.0,30.13,South,180,5.0,6.0,86,0.00,,,0.00,TxWx,2013-02-23 14:10:00,
2013-02-23 09:15:00,36.0,32.0,30.13,South,180,4.0,4.0,86,0.00,,,0.00,TxWx,2013-02-23 14:15:00,
2013-02-23 09:20:00,36.0,32.0,30.13,SSE,157,5.0,5.0,86,0.00,,,0.00,TxWx,2013-02-23 14:20:00,
2013-02-23 09:26:00,36.0,32.0,30.13,SSE,157,7.0,7.0,86,0.00,,,0.00,TxWx,2013-02-23 14:26:00,
2013-02-23 09:31:00,36.0,32.0,30.13,South,180,6.0,10.0,86,0.00,,,0.00,TxWx,2013-02-23 14:31:00,
2013-02-23 09:36:00,36.0,32.0,30.12,ESE,112,5.0,8.0,86,0.00,,,0.00,TxWx,2013-02-23 14:36:00,
2013-02-23 09:41:00,36.0,32.0,30.12,SSE,157,5.0,6.0,87,0.00,,,0.00,TxWx,2013-02-23 14:41:00,
2013-02-23 09:46:00,36.0,32.0,30.12,SE,135,6.0,6.0,87,0.00,,,0.00,TxWx,2013-02-23 14:46:00,
2013-02-23 09:51:00,36.0,32.0,30.12,SSE,157,5.0,10.0,87,0.00,,,0.00,TxWx,2013-02-23 14:51:00,
2013-02-23 09:56:00,36.0,32.0,30.12,South,180,6.0,6.0,87,0.00,,,0.00,TxWx,2013-02-23 14:56:00,
2013-02-23 10:01:00,36.0,33.0,30.12,SSE,157,7.0,8.0,87,0.00,,,0.00,TxWx,2013-02-23 15:01:00,
2013-02-23 10:06:00,36.0,33.0,30.12,SSE,157,3.0,3.0,87,0.00,,,0.00,TxWx,2013-02-23 15:06:00,
2013-02-23 10:11:00,36.0,33.0,30.12,SSE,157,6.0,8.0,87,0.00,,,0.00,TxWx,2013-02-23 15:11:00,
2013-02-23 10:16:00,36.0,33.0,30.11,SSE,157,3.0,5.0,87,0.00,,,0.00,TxWx,2013-02-23 15:16:00,
2013-02-23 10:22:00,36.0,33.0,30.11,South,180,6.0,6.0,88,0.00,,,0.00,TxWx,2013-02-23 15:22:00,
2013-02-23 10:27:00,36.0,33.0,30.10,South,180,8.0,8.0,88,0.00,,,0.00,TxWx,2013-02-23 15:27:00,
2013-02-23 10:32:00,36.0,33.0,30.10,SSE,157,4.0,5.0,88,0.00,,,0.00,TxWx,2013-02-23 15:32:00,
2013-02-23 10:37:00,36.0,33.0,30.09,South,180,6.0,6.0,88,0.00,,,0.00,TxWx,2013-02-23 15:37:00,
2013-02-23 10:42:00,36.0,33.0,30.09,South,180,6.0,6.0,88,0.00,,,0.00,TxWx,2013-02-23 15:42:00,
2013-02-23 10:47:00,36.0,33.0,30.09,South,180,4.0,5.0,88,0.00,,,0.00,TxWx,2013-02-23 15:47:00,
2013-02-23 10:52:00,36.0,33.0,30.08,SE,135,6.0,6.0,89,0.00,,,0.00,TxWx,2013-02-23 15:52:00,
2013-02-23 10:57:00,36.0,33.0,30.08,SSE,157,4.0,5.0,89,0.00,,,0.00,TxWx,2013-02-23 15:57:00,
2013-02-23 11:02:00,36.0,33.0,30.08,South,180,4.0,4.0,89,0.00,,,0.00,TxWx,2013-02-23 16:02:00,
2013-02-23 11:08:00,36.0,33.0,30.08,South,180,6.0,7.0,90,0.00,,,0.00,TxWx,2013-02-23 16:08:00,
2013-02-23 11:13:00,36.0,33.0,30.08,South,180,5.0,7.0,90,0.00,,,0.00,TxWx,2013-02-23 16:13:00,
2013-02-23 11:18:00,36.0,33.0,30.07,SSE,157,6.0,7.0,90,0.00,,,0.00,TxWx,2013-02-23 16:18:00,
2013-02-23 11:23:00,36.0,33.0,30.07,South,180,5.0,5.0,90,0.00,,,0.00,TxWx,2013-02-23 16:23:00,
2013-02-23 11:28:00,36.0,33.0,30.07,South,180,4.0,5.0,90,0.00,,,0.00,TxWx,2013-02-23 16:28:00,
2013-02-23 11:34:00,36.0,33.0,30.07,SE,135,3.0,4.0,91,0.00,,,0.00,TxWx,2013-02-23 16:34:00,
2013-02-23 11:39:00,36.0,33.0,30.06,SSE,157,5.0,7.0,91,0.00,,,0.00,TxWx,2013-02-23 16:39:00,
2013-02-23 11:44:00,36.0,34.0,30.06,SSW,202,6.0,8.0,91,0.00,,,0.00,TxWx,2013-02-23 16:44:00,
2013-02-23 11:49:00,36.0,34.0,30.06,South,180,5.0,6.0,91,0.00,,,0.00,TxWx,2013-02-23 16:49:00,
2013-02-23 11:54:00,36.0,34.0,30.06,SSW,202,3.0,6.0,92,0.00,,,0.00,TxWx,2013-02-23 16:54:00,
2013-02-23 11:59:00,36.0,34.0,30.06,South,180,4.0,6.0,92,0.00,,,0.00,TxWx,2013-02-23 16:59:00,
2013-02-23 12:04:00,36.0,34.0,30.06,South,180,5.0,8.0,92,0.00,,,0.00,TxWx,2013-02-23 17:04:00,
2013-02-23 12:09:00,36.0,34.0,30.06,South,180,4.0,5.0,92,0.00,,,0.00,TxWx,2013-02-23 17:09:00,
2013-02-23 12:14:00,36.0,34.0,30.06,SSE,157,3.0,5.0,93,0.00,,,0.00,TxWx,2013-02-23 17:14:00,
2013-02-23 12:19:00,36.0,34.0,30.05,SSE,157,4.0,5.0,93,0.00,,,0.00,TxWx,2013-02-23 17:19:00,
2013-02-23 12:24:00,36.0,34.0,30.06,South,180,6.0,6.0,94,0.00,,,0.00,TxWx,2013-02-23 17:24:00,
2013-02-23 12:29:00,36.0,34.0,30.06,South,180,8.0,8.0,94,0.00,,,0.00,TxWx,2013-02-23 17:29:00,
2013-02-23 12:34:00,36.0,34.0,30.06,South,180,6.0,8.0,94,0.00,,,0.00,TxWx,2013-02-23 17:34:00,
2013-02-23 12:40:00,36.0,35.0,30.06,South,180,4.0,6.0,95,0.00,,,0.00,TxWx,2013-02-23 17:40:00,
2013-02-23 12:45:00,36.0,35.0,30.06,SSE,157,4.0,5.0,95,0.00,,,0.00,TxWx,2013-02-23 17:45:00,
2013-02-23 12:50:00,36.0,35.0,30.06,SSE,157,5.0,6.0,96,0.00,,,0.00,TxWx,2013-02-23 17:50:00,
2013-02-23 12:55:00,36.0,35.0,30.06,SSE,157,7.0,8.0,96,0.00,,,0.00,TxWx,2013-02-23 17:55:00,
2013-02-23 13:00:00,36.0,35.0,30.05,South,180,5.0,6.0,96,0.00,,,0.00,TxWx,2013-02-23 18:00:00,
2013-02-23 13:05:00,36.0,35.0,30.05,SSE,157,3.0,5.0,97,0.00,,,0.00,TxWx,2013-02-23 18:05:00,
2013-02-23 13:10:00,36.0,35.0,30.05,SSE,157,8.0,8.0,97,0.00,,,0.00,TxWx,2013-02-23 18:10:00,
2013-02-23 13:15:00,36.0,35.0,30.05,South,180,6.0,7.0,97,0.00,,,0.00,TxWx,2013-02-23 18:15:00,
2013-02-23 13:20:00,36.0,35.0,30.05,SE,135,5.0,5.0,98,0.00,,,0.00,TxWx,2013-02-23 18:20:00,
2013-02-23 13:25:00,36.0,35.0,30.05,SSE,157,6.0,6.0,98,0.00,,,0.00,TxWx,2013-02-23 18:25:00,
2013-02-23 13:30:00,36.0,35.0,30.04,South,180,5.0,5.0,98,0.00,,,0.00,TxWx,2013-02-23 18:30:00,
2013-02-23 13:35:00,36.0,35.0,30.04,SSE,157,5.0,6.0,98,0.00,,,0.00,TxWx,2013-02-23 18:35:00,
2013-02-23 13:40:00,36.0,36.0,30.04,ESE,112,0.0,0.0,99,0.00,,,0.00,TxWx,2013-02-23 18:40:00,
2013-02-23 13:45:00,36.0,36.0,30.04,SSE,157,3.0,3.0,99,0.00,,,0.00,TxWx,2013-02-23 18:45:00,
2013-02-23 13:51:00,36.0,36.0,30.03,South,180,5.0,5.0,99,0.00,,,0.00,TxWx,2013-02-23 18:51:00,
2013-02-23 13:56:00,36.0,36.0,30.03,SE,135,1.0,1.0,99,0.00,,,0.00,TxWx,2013-02-23 18:56:00,
2013-02-23 14:00:00,37.0,36.0,29.88,SE,135,0.0,0.0,98,0.00,,,0.00,TxWx,2013-02-23 19:00:00,
2013-02-23 14:01:00,36.0,36.0,30.03,ESE,112,3.0,4.0,99,0.00,,,0.00,TxWx,2013-02-23 19:01:00,
2013-02-23 14:02:00,37.0,36.0,29.88,ESE,112,0.0,0.0,98,0.00,,,0.00,TxWx,2013-02-23 19:02:00,
2013-02-23 14:03:00,37.0,36.0,29.88,ESE,112,0.0,0.0,98,0.00,,,0.00,TxWx,2013-02-23 19:03:00,
2013-02-23 14:04:00,37.0,36.0,29.88,ESE,112,0.0,0.0,98,0.00,,,0.00,TxWx,2013-02-23 19:04:00,
2013-02-23 14:06:00,36.0,36.0,30.02,South,180,5.0,6.0,100,0.00,,,0.00,TxWx,2013-02-23 19:06:00,
2013-02-23 14:07:00,37.0,36.0,29.87,ESE,112,0.0,0.0,98,0.00,,,0.00,TxWx,2013-02-23 19:07:00,
2013-02-23 14:08:00,37.0,36.0,29.87,ESE,112,0.0,0.0,98,0.00,,,0.00,TxWx,2013-02-23 19:08:00,
2013-02-23 14:09:00,37.0,36.0,29.87,East,90,0.0,0.0,98,0.00,,,0.00,TxWx,2013-02-23 19:09:00,
2013-02-23 14:11:00,36.0,36.0,30.02,SE,135,0.0,1.0,100,0.00,,,0.00,TxWx,2013-02-23 19:11:00,
2013-02-23 14:15:00,37.0,36.0,29.87,East,90,0.0,0.0,98,0.00,,,0.00,TxWx,2013-02-23 19:15:00,
2013-02-23 14:16:00,36.0,36.0,30.02,ESE,112,0.0,1.0,100,0.00,,,0.00,TxWx,2013-02-23 19:16:00,
2013-02-23 14:17:00,37.0,36.0,29.87,East,90,0.0,0.0,98,0.00,,,0.00,TxWx,2013-02-23 19:17:00,
2013-02-23 14:18:00,37.0,36.0,29.87,East,90,0.0,0.0,98,0.00,,,0.00,TxWx,2013-02-23 19:18:00,
2013-02-23 14:21:00,36.0,36.0,30.02,SSE,157,3.0,3.0,100,0.00,,,0.00,TxWx,2013-02-23 19:21:00,
2013-02-23 14:26:00,36.0,36.0,30.01,ESE,112,1.0,2.0,100,0.00,,,0.00,TxWx,2013-02-23 19:26:00,
2013-02-23 14:31:00,36.0,36.0,30.01,SE,135,2.0,3.0,100,0.00,,,0.00,TxWx,2013-02-23 19:31:00,
2013-02-23 14:36:00,36.0,36.0,30.01,SSE,157,4.0,5.0,100,0.00,,,0.00,TxWx,2013-02-23 19:36:00,
2013-02-23 14:41:00,36.0,36.0,30.01,SSE,157,2.0,4.0,100,0.00,,,0.00,TxWx,2013-02-23 19:41:00,
2013-02-23 14:46:00,36.0,36.0,30.00,SSE,157,3.0,3.0,100,0.00,,,0.00,TxWx,2013-02-23 19:46:00,
2013-02-23 14:52:00,36.0,36.0,30.00,ESE,112,1.0,3.0,100,0.00,,,0.00,TxWx,2013-02-23 19:52:00,
2013-02-23 14:57:00,36.0,36.0,30.00,SSW,202,5.0,5.0,100,0.00,,,0.00,TxWx,2013-02-23 19:57:00,
2013-02-23 15:02:00,36.0,36.0,30.00,South,180,5.0,6.0,100,0.00,,,0.00,TxWx,2013-02-23 20:02:00,
2013-02-23 15:07:00,37.0,37.0,30.00,SSE,157,5.0,5.0,100,0.00,,,0.00,TxWx,2013-02-23 20:07:00,
2013-02-23 15:12:00,37.0,37.0,30.00,SSE,157,3.0,4.0,100,0.00,,,0.00,TxWx,2013-02-23 20:12:00,
2013-02-23 15:17:00,37.0,37.0,30.00,South,180,3.0,5.0,100,0.00,,,0.00,TxWx,2013-02-23 20:17:00,
2013-02-23 15:22:00,37.0,37.0,30.00,South,180,5.0,6.0,100,0.00,,,0.00,TxWx,2013-02-23 20:22:00,
2013-02-23 15:27:00,37.0,37.0,29.99,South,180,8.0,8.0,100,0.00,,,0.00,TxWx,2013-02-23 20:27:00,
2013-02-23 15:28:00,36.0,36.0,29.85,North,0,3.0,3.0,99,0.00,,,0.00,TxWx,2013-02-23 20:28:00,
2013-02-23 15:29:00,36.0,36.0,29.85,NNE,22,2.0,3.0,99,0.00,,,0.00,TxWx,2013-02-23 20:29:00,
2013-02-23 15:30:00,36.0,36.0,29.85,NNE,22,3.0,3.0,99,0.00,,,0.00,TxWx,2013-02-23 20:30:00,
2013-02-23 15:31:00,36.0,36.0,29.85,ENE,67,1.0,2.0,99,0.00,,,0.00,TxWx,2013-02-23 20:31:00,
2013-02-23 15:32:00,37.0,37.0,29.99,South,180,7.0,7.0,100,0.00,,,0.00,TxWx,2013-02-23 20:32:00,
2013-02-23 15:37:00,37.0,37.0,29.99,South,180,6.0,6.0,100,0.00,,,0.00,TxWx,2013-02-23 20:37:00,
2013-02-23 15:42:00,37.0,37.0,29.99,SW,225,5.0,6.0,100,0.00,,,0.00,TxWx,2013-02-23 20:42:00,
2013-02-23 15:47:00,37.0,37.0,29.99,South,180,6.0,6.0,100,0.00,,,0.00,TxWx,2013-02-23 20:47:00,
2013-02-23 15:52:00,37.0,37.0,29.98,South,180,6.0,6.0,100,0.00,,,0.00,TxWx,2013-02-23 20:52:00,
2013-02-23 15:57:00,37.0,37.0,29.98,SSE,157,5.0,5.0,100,0.00,,,0.00,TxWx,2013-02-23 20:57:00,
2013-02-23 16:03:00,37.0,37.0,29.98,SSE,157,4.0,6.0,100,0.00,,,0.00,TxWx,2013-02-23 21:03:00,
2013-02-23 16:06:00,35.0,35.0,29.85,NNE,22,2.0,2.0,100,0.00,,,0.00,TxWx,2013-02-23 21:06:00,
2013-02-23 16:07:00,35.0,35.0,29.85,ENE,67,1.0,2.0,100,0.00,,,0.00,TxWx,2013-02-23 21:07:00,
2013-02-23 16:08:00,37.0,37.0,29.98,South,180,5.0,5.0,100,0.00,,,0.00,TxWx,2013-02-23 21:08:00,
2013-02-23 16:09:00,35.0,35.0,29.85,North,0,3.0,5.0,100,0.00,,,0.00,TxWx,2013-02-23 21:09:00,
2013-02-23 16:10:00,35.0,35.0,29.85,NNE,22,3.0,3.0,100,0.00,,,0.00,TxWx,2013-02-23 21:10:00,
2013-02-23 16:11:00,35.0,35.0,29.84,NNE,22,2.0,3.0,100,0.00,,,0.00,TxWx,2013-02-23 21:11:00,
2013-02-23 16:12:00,35.0,35.0,29.85,NNE,22,2.0,3.0,100,0.00,,,0.00,TxWx,2013-02-23 21:12:00,
2013-02-23 16:13:00,37.0,37.0,29.98,South,180,3.0,5.0,100,0.00,,,0.00,TxWx,2013-02-23 21:13:00,
2013-02-23 16:14:00,35.0,35.0,29.85,ENE,67,0.0,2.0,100,0.00,,,0.00,TxWx,2013-02-23 21:14:00,
2013-02-23 16:15:00,35.0,35.0,29.85,NE,45,3.0,3.0,100,0.00,,,0.00,TxWx,2013-02-23 21:15:00,
2013-02-23 16:18:00,37.0,37.0,29.97,SSE,157,2.0,3.0,100,0.00,,,0.00,TxWx,2013-02-23 21:18:00,
2013-02-23 16:23:00,37.0,37.0,29.97,South,180,6.0,6.0,100,0.00,,,0.00,TxWx,2013-02-23 21:23:00,
2013-02-23 16:28:00,37.0,37.0,29.97,SSE,157,3.0,5.0,100,0.00,,,0.00,TxWx,2013-02-23 21:28:00,
2013-02-23 16:29:00,35.0,35.0,29.84,NE,45,2.0,2.0,100,0.00,,,0.00,TxWx,2013-02-23 21:29:00,
2013-02-23 16:30:00,35.0,35.0,29.84,North,0,4.0,4.0,100,0.00,,,0.00,TxWx,2013-02-23 21:30:00,
2013-02-23 16:31:00,35.0,35.0,29.84,North,0,2.0,3.0,100,0.00,,,0.00,TxWx,2013-02-23 21:31:00,
2013-02-23 16:33:00,37.0,37.0,29.97,South,180,4.0,6.0,100,0.00,,,0.00,TxWx,2013-02-23 21:33:00,
2013-02-23 16:38:00,37.0,37.0,29.97,South,180,4.0,4.0,100,0.00,,,0.00,TxWx,2013-02-23 21:38:00,
2013-02-23 16:43:00,37.0,37.0,29.97,SSE,157,6.0,6.0,100,0.00,,,0.00,TxWx,2013-02-23 21:43:00,
2013-02-23 16:48:00,37.0,37.0,29.97,SSE,157,5.0,5.0,100,0.00,,,0.00,TxWx,2013-02-23 21:48:00,
2013-02-23 16:53:00,37.0,37.0,29.97,SSE,157,4.0,5.0,100,0.00,,,0.00,TxWx,2013-02-23 21:53:00,
2013-02-23 16:58:00,37.0,37.0,29.97,SSE,157,5.0,5.0,100,0.00,,,0.00,TxWx,2013-02-23 21:58:00,
2013-02-23 17:03:00,37.0,37.0,29.96,SSE,157,5.0,7.0,100,0.00,,,0.00,TxWx,2013-02-23 22:03:00,
2013-02-23 17:08:00,37.0,37.0,29.97,SSE,157,6.0,6.0,100,0.00,,,0.00,TxWx,2013-02-23 22:08:00,
2013-02-23 17:14:00,37.0,37.0,29.97,South,180,5.0,7.0,100,0.00,,,0.00,TxWx,2013-02-23 22:14:00,
2013-02-23 17:19:00,37.0,37.0,29.96,SSE,157,3.0,4.0,100,0.00,,,0.00,TxWx,2013-02-23 22:19:00,
2013-02-23 17:20:00,35.0,35.0,29.82,NNE,22,4.0,4.0,100,0.00,,,0.00,TxWx,2013-02-23 22:20:00,
2013-02-23 17:21:00,35.0,35.0,29.82,NNE,22,3.0,4.0,100,0.00,,,0.00,TxWx,2013-02-23 22:21:00,
2013-02-23 17:24:00,37.0,37.0,29.97,South,180,4.0,6.0,100,0.00,,,0.00,TxWx,2013-02-23 22:24:00,
2013-02-23 17:29:00,37.0,37.0,29.96,SE,135,3.0,4.0,100,0.00,,,0.00,TxWx,2013-02-23 22:29:00,
2013-02-23 17:34:00,37.0,37.0,29.96,SSW,202,4.0,4.0,100,0.00,,,0.00,TxWx,2013-02-23 22:34:00,
2013-02-23 17:39:00,37.0,37.0,29.96,South,180,5.0,5.0,100,0.00,,,0.00,TxWx,2013-02-23 22:39:00,
2013-02-23 17:44:00,37.0,37.0,29.96,SSW,202,5.0,5.0,100,0.00,,,0.00,TxWx,2013-02-23 22:44:00,
2013-02-23 17:49:00,37.0,37.0,29.96,South,180,5.0,8.0,100,0.00,,,0.00,TxWx,2013-02-23 22:49:00,
2013-02-23 17:54:00,37.0,37.0,29.95,South,180,5.0,5.0,100,0.00,,,0.00,TxWx,2013-02-23 22:54:00,
2013-02-23 17:59:00,38.0,38.0,29.95,South,180,5.0,5.0,100,0.00,,,0.00,TxWx,2013-02-23 22:59:00,
2013-02-23 18:04:00,38.0,38.0,29.96,South,180,7.0,9.0,100,0.00,,,0.00,TxWx,2013-02-23 23:04:00,
2013-02-23 18:09:00,38.0,38.0,29.95,SSE,157,6.0,7.0,100,0.00,,,0.00,TxWx,2013-02-23 23:09:00,
2013-02-23 18:14:00,38.0,38.0,29.95,South,180,4.0,6.0,100,0.00,,,0.00,TxWx,2013-02-23 23:14:00,
2013-02-23 18:18:00,35.0,35.0,29.83,SSW,202,2.0,2.0,100,0.00,,,0.00,TxWx,2013-02-23 23:18:00,
2013-02-23 18:20:00,38.0,38.0,29.95,SSW,202,5.0,6.0,100,0.00,,,0.00,TxWx,2013-02-23 23:20:00,
2013-02-23 18:24:00,35.0,35.0,29.83,West,270,1.0,2.0,100,0.00,,,0.00,TxWx,2013-02-23 23:24:00,
2013-02-23 18:25:00,38.0,38.0,29.95,SSE,157,4.0,6.0,100,0.00,,,0.00,TxWx,2013-02-23 23:25:00,
2013-02-23 18:30:00,38.0,38.0,29.94,SSE,157,4.0,5.0,100,0.00,,,0.00,TxWx,2013-02-23 23:30:00,
2013-02-23 18:35:00,38.0,38.0,29.95,South,180,5.0,5.0,100,0.00,,,0.00,TxWx,2013-02-23 23:35:00,
2013-02-23 18:40:00,38.0,38.0,29.95,South,180,5.0,6.0,100,0.00,,,0.00,TxWx,2013-02-23 23:40:00,
2013-02-23 18:45:00,38.0,38.0,29.95,South,180,5.0,5.0,100,0.00,,,0.00,TxWx,2013-02-23 23:45:00,
2013-02-23 18:50:00,38.0,38.0,29.95,South,180,4.0,5.0,100,0.00,,,0.00,TxWx,2013-02-23 23:50:00,
2013-02-23 18:55:00,38.0,38.0,29.94,ESE,112,3.0,5.0,100,0.00,,,0.00,TxWx,2013-02-23 23:55:00,
2013-02-23 19:00:00,38.0,38.0,29.94,ESE,112,2.0,3.0,100,0.00,,,0.00,TxWx,2013-02-24 00:00:00,
2013-02-23 19:05:00,38.0,38.0,29.94,SSE,157,3.0,3.0,100,0.00,,,0.00,TxWx,2013-02-24 00:05:00,
2013-02-23 19:10:00,38.0,38.0,29.95,SSE,157,3.0,4.0,100,0.00,,,0.00,TxWx,2013-02-24 00:10:00,
2013-02-23 19:15:00,38.0,38.0,29.95,SSE,157,3.0,3.0,100,0.00,,,0.00,TxWx,2013-02-24 00:15:00,
2013-02-23 19:20:00,38.0,38.0,29.95,SE,135,4.0,4.0,100,0.00,,,0.00,TxWx,2013-02-24 00:20:00,
2013-02-23 19:25:00,38.0,38.0,29.94,SSE,157,4.0,4.0,100,0.00,,,0.00,TxWx,2013-02-24 00:25:00,
2013-02-23 19:31:00,38.0,38.0,29.95,SSE,157,4.0,4.0,100,0.00,,,0.00,TxWx,2013-02-24 00:31:00,
2013-02-23 19:36:00,38.0,38.0,29.95,SSE,157,2.0,3.0,100,0.00,,,0.00,TxWx,2013-02-24 00:36:00,
2013-02-23 19:37:00,34.0,34.0,29.83,East,90,0.0,0.0,100,0.00,,,0.01,TxWx,2013-02-24 00:37:00,
2013-02-23 19:41:00,38.0,38.0,29.94,SSE,157,3.0,3.0,100,0.00,,,0.00,TxWx,2013-02-24 00:41:00,
2013-02-23 19:46:00,38.0,38.0,29.94,SSE,157,3.0,3.0,100,0.00,,,0.00,TxWx,2013-02-24 00:46:00,
2013-02-23 19:51:00,38.0,38.0,29.95,South,180,5.0,5.0,100,0.00,,,0.00,TxWx,2013-02-24 00:51:00,
2013-02-23 19:56:00,38.0,38.0,29.94,South,180,3.0,3.0,100,0.00,,,0.00,TxWx,2013-02-24 00:56:00,
2013-02-23 20:01:00,38.0,38.0,29.95,SSW,202,4.0,5.0,100,0.00,,,0.00,TxWx,2013-02-24 01:01:00,
2013-02-23 20:06:00,38.0,38.0,29.95,SSE,157,5.0,6.0,100,0.00,,,0.00,TxWx,2013-02-24 01:06:00,
2013-02-23 20:11:00,38.0,38.0,29.94,South,180,1.0,2.0,100,0.00,,,0.00,TxWx,2013-02-24 01:11:00,
2013-02-23 20:16:00,38.0,38.0,29.95,SSW,202,5.0,5.0,100,0.00,,,0.00,TxWx,2013-02-24 01:16:00,
2013-02-23 20:21:00,38.0,38.0,29.95,SSE,157,4.0,5.0,99,0.00,,,0.00,TxWx,2013-02-24 01:21:00,
2013-02-23 20:26:00,38.0,38.0,29.94,SE,135,3.0,5.0,99,0.00,,,0.00,TxWx,2013-02-24 01:26:00,
2013-02-23 20:31:00,38.0,38.0,29.93,SSE,157,3.0,3.0,99,0.00,,,0.00,TxWx,2013-02-24 01:31:00,
2013-02-23 20:36:00,38.0,38.0,29.94,SSW,202,3.0,3.0,99,0.00,,,0.00,TxWx,2013-02-24 01:36:00,
2013-02-23 20:42:00,38.0,37.0,29.94,South,180,5.0,6.0,98,0.00,,,0.00,TxWx,2013-02-24 01:42:00,
2013-02-23 20:47:00,38.0,37.0,29.94,SSE,157,3.0,5.0,98,0.00,,,0.00,TxWx,2013-02-24 01:47:00,
2013-02-23 20:52:00,38.0,37.0,29.94,SSE,157,6.0,6.0,98,0.00,,,0.00,TxWx,2013-02-24 01:52:00,
2013-02-23 20:57:00,38.0,37.0,29.95,South,180,4.0,5.0,98,0.00,,,0.00,TxWx,2013-02-24 01:57:00,
2013-02-23 21:02:00,38.0,37.0,29.95,South,180,6.0,6.0,98,0.00,,,0.00,TxWx,2013-02-24 02:02:00,
2013-02-23 21:07:00,38.0,37.0,29.94,SSE,157,3.0,5.0,98,0.00,,,0.00,TxWx,2013-02-24 02:07:00,
2013-02-23 21:12:00,38.0,37.0,29.94,ESE,112,2.0,3.0,98,0.00,,,0.00,TxWx,2013-02-24 02:12:00,
2013-02-23 21:17:00,38.0,37.0,29.93,SSE,157,1.0,3.0,98,0.00,,,0.00,TxWx,2013-02-24 02:17:00,
2013-02-23 21:22:00,38.0,37.0,29.93,SE,135,4.0,4.0,98,0.00,,,0.00,TxWx,2013-02-24 02:22:00,
2013-02-23 21:27:00,38.0,37.0,29.93,ESE,112,1.0,2.0,98,0.00,,,0.00,TxWx,2013-02-24 02:27:00,
2013-02-23 21:32:00,38.0,37.0,29.92,South,180,2.0,3.0,98,0.00,,,0.00,TxWx,2013-02-24 02:32:00,
2013-02-23 21:37:00,38.0,37.0,29.92,South,180,3.0,3.0,98,0.00,,,0.00,TxWx,2013-02-24 02:37:00,
2013-02-23 21:42:00,38.0,37.0,29.92,SSE,157,2.0,3.0,98,0.00,,,0.00,TxWx,2013-02-24 02:42:00,
2013-02-23 21:47:00,38.0,37.0,29.92,SE,135,3.0,4.0,98,0.00,,,0.00,TxWx,2013-02-24 02:47:00,
2013-02-23 21:53:00,38.0,37.0,29.91,SE,135,3.0,3.0,98,0.00,,,0.00,TxWx,2013-02-24 02:53:00,
2013-02-23 21:58:00,38.0,37.0,29.91,South,180,3.0,3.0,98,0.00,,,0.00,TxWx,2013-02-24 02:58:00,
2013-02-23 22:03:00,38.0,37.0,29.91,South,180,5.0,5.0,97,0.00,,,0.00,TxWx,2013-02-24 03:03:00,
2013-02-23 22:08:00,38.0,37.0,29.91,South,180,3.0,4.0,97,0.00,,,0.00,TxWx,2013-02-24 03:08:00,
2013-02-23 22:13:00,38.0,37.0,29.91,SSE,157,5.0,5.0,97,0.00,,,0.00,TxWx,2013-02-24 03:13:00,
2013-02-23 22:18:00,38.0,37.0,29.91,SSE,157,6.0,6.0,97,0.00,,,0.00,TxWx,2013-02-24 03:18:00,
2013-02-23 22:23:00,38.0,37.0,29.91,SSE,157,2.0,4.0,97,0.00,,,0.00,TxWx,2013-02-24 03:23:00,
2013-02-23 22:28:00,37.0,36.0,29.90,SSW,202,3.0,4.0,97,0.00,,,0.00,TxWx,2013-02-24 03:28:00,
2013-02-23 22:33:00,37.0,36.0,29.90,South,180,5.0,5.0,97,0.00,,,0.00,TxWx,2013-02-24 03:33:00,
2013-02-23 22:38:00,37.0,36.0,29.90,ESE,112,4.0,5.0,97,0.00,,,0.00,TxWx,2013-02-24 03:38:00,
2013-02-23 22:43:00,37.0,36.0,29.90,SSE,157,7.0,8.0,97,0.00,,,0.00,TxWx,2013-02-24 03:43:00,
2013-02-23 22:48:00,37.0,36.0,29.90,SSE,157,3.0,3.0,97,0.00,,,0.00,TxWx,2013-02-24 03:48:00,
2013-02-23 22:53:00,37.0,36.0,29.90,SSE,157,3.0,3.0,97,0.00,,,0.00,TxWx,2013-02-24 03:53:00,
2013-02-23 22:59:00,37.0,36.0,29.89,SE,135,3.0,5.0,97,0.00,,,0.00,TxWx,2013-02-24 03:59:00,
2013-02-23 23:04:00,37.0,36.0,29.89,South,180,4.0,5.0,97,0.00,,,0.00,TxWx,2013-02-24 04:04:00,
2013-02-23 23:09:00,37.0,36.0,29.88,ESE,112,3.0,3.0,97,0.00,,,0.00,TxWx,2013-02-24 04:09:00,
2013-02-23 23:14:00,37.0,36.0,29.88,ESE,112,0.0,1.0,97,0.00,,,0.00,TxWx,2013-02-24 04:14:00,
2013-02-23 23:19:00,37.0,36.0,29.89,SE,135,1.0,2.0,97,0.00,,,0.00,TxWx,2013-02-24 04:19:00,
2013-02-23 23:24:00,37.0,36.0,29.89,SSW,202,2.0,3.0,98,0.00,,,0.00,TxWx,2013-02-24 04:24:00,
2013-02-23 23:29:00,37.0,36.0,29.89,South,180,4.0,4.0,98,0.00,,,0.00,TxWx,2013-02-24 04:29:00,
2013-02-23 23:34:00,37.0,36.0,29.88,South,180,3.0,3.0,98,0.00,,,0.00,TxWx,2013-02-24 04:34:00,
2013-02-23 23:39:00,37.0,36.0,29.88,SSW,202,5.0,6.0,98,0.00,,,0.00,TxWx,2013-02-24 04:39:00,
2013-02-23 23:44:00,37.0,36.0,29.88,SSE,157,3.0,3.0,98,0.00,,,0.00,TxWx,2013-02-24 04:44:00,
2013-02-23 23:49:00,37.0,36.0,29.88,SSW,202,2.0,3.0,98,0.00,,,0.00,TxWx,2013-02-24 04:49:00,
2013-02-23 23:54:00,37.0,36.0,29.88,SSE,157,2.0,2.0,98,0.00,,,0.00,TxWx,2013-02-24 04:54:00,
2013-02-23 23:59:00,37.0,36.0,29.88,SSE,157,0.0,1.0,98,0.00,,,0.00,TxWx,2013-02-24 04:59:00,